AIQ4102 VTBS-VTCC
Flight info
| Callsign | AIQ4102 |
|---|---|
| Flight time | 1h 1m |
| Altitude | 38000 |
| Route | OLVUK1G OLVUK Y26 MARNI MARNI2A |
| Aircraft | A20N/M-SDE2E3FGHIRWXY/LB1 |
Departure
| Time | 2026-04-23 19:34 |
|---|---|
| Airport | Suvarnabhumi Airport (VTBS) |
Arrival
| Time | 2026-04-23 20:36 |
|---|---|
| Airport | Chiang Mai International Airport (VTCC) |
| Time | Latitude | Longitude | Altitude | Speed | Heading |
|---|---|---|---|---|---|
| 2026-04-23 18:58 | 13.69383 | 100.74648 | 13 ft | 0 kts | 104° |
| 2026-04-23 19:21 | 13.69384 | 100.74645 | 13 ft | 1 kts | 104° |
| 2026-04-23 19:22 | 13.69386 | 100.74637 | 13 ft | 1 kts | 104° |
| 2026-04-23 19:22 | 13.69388 | 100.74627 | 14 ft | 2 kts | 104° |
| 2026-04-23 19:22 | 13.69404 | 100.74596 | 14 ft | 3 kts | 136° |
| 2026-04-23 19:23 | 13.69420 | 100.74583 | 14 ft | 3 kts | 153° |
| 2026-04-23 19:23 | 13.69437 | 100.74576 | 15 ft | 3 kts | 164° |
| 2026-04-23 19:23 | 13.69456 | 100.74573 | 14 ft | 3 kts | 181° |
| 2026-04-23 19:24 | 13.69468 | 100.74573 | 16 ft | 0 kts | 191° |
| 2026-04-23 19:28 | 13.69442 | 100.74562 | 14 ft | 4 kts | 230° |
| 2026-04-23 19:28 | 13.69456 | 100.74469 | 13 ft | 10 kts | 284° |
| 2026-04-23 19:29 | 13.69476 | 100.74387 | 13 ft | 14 kts | 284° |
| 2026-04-23 19:29 | 13.69551 | 100.74296 | 12 ft | 1 kts | 2° |
| 2026-04-23 19:30 | 13.69616 | 100.74312 | 12 ft | 9 kts | 15° |
| 2026-04-23 19:30 | 13.69686 | 100.74331 | 12 ft | 12 kts | 15° |
| 2026-04-23 19:30 | 13.69876 | 100.74380 | 13 ft | 15 kts | 14° |
| 2026-04-23 19:31 | 13.69990 | 100.74410 | 13 ft | 18 kts | 14° |
| 2026-04-23 19:31 | 13.70125 | 100.74445 | 13 ft | 21 kts | 14° |
| 2026-04-23 19:31 | 13.70213 | 100.74443 | 13 ft | 4 kts | 320° |
| 2026-04-23 19:31 | 13.70230 | 100.74405 | 13 ft | 5 kts | 282° |
| 2026-04-23 19:32 | 13.70232 | 100.74399 | 15 ft | 1 kts | 282° |
| 2026-04-23 19:32 | 13.70236 | 100.74380 | 13 ft | 5 kts | 282° |
| 2026-04-23 19:32 | 13.70244 | 100.74338 | 14 ft | 8 kts | 277° |
| 2026-04-23 19:32 | 13.70221 | 100.74284 | 15 ft | 9 kts | 220° |
| 2026-04-23 19:33 | 13.70185 | 100.74271 | 14 ft | 0 kts | 194° |
| 2026-04-23 19:33 | 13.70183 | 100.74270 | 15 ft | 5 kts | 194° |
| 2026-04-23 19:33 | 13.69200 | 100.74015 | 12 ft | 131 kts | 194° |
| 2026-04-23 19:34 | 13.68201 | 100.73744 | 224 ft | 155 kts | 194° |
| 2026-04-23 19:34 | 13.67131 | 100.73468 | 704 ft | 164 kts | 196° |
| 2026-04-23 19:34 | 13.64859 | 100.72798 | 1788 ft | 173 kts | 198° |
| 2026-04-23 19:35 | 13.63698 | 100.72437 | 2364 ft | 175 kts | 199° |
| 2026-04-23 19:35 | 13.62468 | 100.72076 | 2708 ft | 193 kts | 198° |
| 2026-04-23 19:35 | 13.61094 | 100.71696 | 2981 ft | 218 kts | 196° |
| 2026-04-23 19:35 | 13.59530 | 100.71287 | 3411 ft | 243 kts | 196° |
| 2026-04-23 19:36 | 13.57827 | 100.70855 | 4078 ft | 258 kts | 195° |
| 2026-04-23 19:36 | 13.56075 | 100.70399 | 4944 ft | 266 kts | 199° |
| 2026-04-23 19:36 | 13.54477 | 100.69435 | 5048 ft | 269 kts | 226° |
| 2026-04-23 19:36 | 13.53537 | 100.67799 | 5239 ft | 275 kts | 254° |
| 2026-04-23 19:37 | 13.53440 | 100.65829 | 5913 ft | 282 kts | 281° |
| 2026-04-23 19:37 | 13.53926 | 100.63865 | 6827 ft | 285 kts | 284° |
| 2026-04-23 19:37 | 13.54424 | 100.61893 | 7715 ft | 288 kts | 284° |
| 2026-04-23 19:37 | 13.55010 | 100.59901 | 8536 ft | 294 kts | 296° |
| 2026-04-23 19:38 | 13.56250 | 100.58215 | 9100 ft | 300 kts | 320° |
| 2026-04-23 19:38 | 13.58062 | 100.57206 | 9201 ft | 300 kts | 347° |
| 2026-04-23 19:38 | 13.60135 | 100.57029 | 9323 ft | 299 kts | 3° |
| 2026-04-23 19:38 | 13.62216 | 100.57158 | 9430 ft | 300 kts | 6° |
| 2026-04-23 19:39 | 13.64294 | 100.57320 | 9537 ft | 300 kts | 5° |
| 2026-04-23 19:39 | 13.66382 | 100.57448 | 9657 ft | 299 kts | 4° |
| 2026-04-23 19:39 | 13.68455 | 100.57536 | 9769 ft | 301 kts | 2° |
| 2026-04-23 19:39 | 13.70572 | 100.57602 | 10214 ft | 307 kts | 2° |
| 2026-04-23 19:40 | 13.72774 | 100.57664 | 10529 ft | 330 kts | 2° |
| 2026-04-23 19:40 | 13.75148 | 100.57721 | 10805 ft | 350 kts | 0° |
| 2026-04-23 19:40 | 13.77579 | 100.57409 | 11508 ft | 354 kts | 346° |
| 2026-04-23 19:40 | 13.79903 | 100.56505 | 12230 ft | 359 kts | 332° |
| 2026-04-23 19:41 | 13.82042 | 100.55172 | 13031 ft | 361 kts | 328° |
| 2026-04-23 19:41 | 13.84195 | 100.53808 | 13726 ft | 365 kts | 328° |
| 2026-04-23 19:41 | 13.86370 | 100.52437 | 14384 ft | 368 kts | 329° |
| 2026-04-23 19:41 | 13.88558 | 100.51059 | 15067 ft | 370 kts | 329° |
| 2026-04-23 19:42 | 13.90758 | 100.49673 | 15740 ft | 372 kts | 329° |
| 2026-04-23 19:42 | 13.92995 | 100.48290 | 16334 ft | 376 kts | 332° |
| 2026-04-23 19:42 | 13.95375 | 100.47156 | 17029 ft | 376 kts | 340° |
| 2026-04-23 19:42 | 13.97864 | 100.46323 | 17618 ft | 379 kts | 343° |
| 2026-04-23 19:43 | 14.00420 | 100.45523 | 18098 ft | 386 kts | 343° |
| 2026-04-23 19:43 | 14.02991 | 100.44710 | 18621 ft | 388 kts | 343° |
| 2026-04-23 19:43 | 14.05584 | 100.43889 | 19072 ft | 392 kts | 343° |
| 2026-04-23 19:43 | 14.08199 | 100.43059 | 19604 ft | 393 kts | 342° |
| 2026-04-23 19:44 | 14.10789 | 100.42235 | 20081 ft | 397 kts | 343° |
| 2026-04-23 19:44 | 14.13428 | 100.41395 | 20609 ft | 398 kts | 342° |
| 2026-04-23 19:44 | 14.16090 | 100.40548 | 21062 ft | 402 kts | 343° |
| 2026-04-23 19:44 | 14.18796 | 100.39688 | 21513 ft | 406 kts | 342° |
| 2026-04-23 19:45 | 14.21496 | 100.38829 | 21977 ft | 410 kts | 342° |
| 2026-04-23 19:45 | 14.24238 | 100.37957 | 22404 ft | 414 kts | 342° |
| 2026-04-23 19:45 | 14.26989 | 100.37083 | 22972 ft | 414 kts | 342° |
| 2026-04-23 19:45 | 14.29762 | 100.36201 | 23370 ft | 419 kts | 342° |
| 2026-04-23 19:46 | 14.32540 | 100.35318 | 23823 ft | 419 kts | 342° |
| 2026-04-23 19:46 | 14.35348 | 100.34426 | 24148 ft | 424 kts | 342° |
| 2026-04-23 19:46 | 14.38164 | 100.33529 | 24574 ft | 425 kts | 342° |
| 2026-04-23 19:46 | 14.40996 | 100.32626 | 24927 ft | 428 kts | 342° |
| 2026-04-23 19:47 | 14.43860 | 100.31713 | 25323 ft | 429 kts | 342° |
| 2026-04-23 19:47 | 14.46692 | 100.30703 | 25691 ft | 431 kts | 337° |
| 2026-04-23 19:47 | 14.49414 | 100.29386 | 26049 ft | 433 kts | 333° |
| 2026-04-23 19:47 | 14.52126 | 100.28011 | 26417 ft | 435 kts | 333° |
| 2026-04-23 19:48 | 14.54823 | 100.26651 | 26771 ft | 437 kts | 333° |
| 2026-04-23 19:48 | 14.57594 | 100.25256 | 27123 ft | 439 kts | 333° |
| 2026-04-23 19:48 | 14.60358 | 100.23864 | 27477 ft | 441 kts | 333° |
| 2026-04-23 19:48 | 14.63083 | 100.22492 | 27802 ft | 443 kts | 333° |
| 2026-04-23 19:49 | 14.65923 | 100.21141 | 28133 ft | 445 kts | 338° |
| 2026-04-23 19:49 | 14.68858 | 100.20098 | 28448 ft | 448 kts | 341° |
| 2026-04-23 19:49 | 14.71843 | 100.19116 | 28710 ft | 451 kts | 341° |
| 2026-04-23 19:49 | 14.74841 | 100.18121 | 29010 ft | 453 kts | 341° |
| 2026-04-23 19:50 | 14.77848 | 100.17120 | 29318 ft | 455 kts | 341° |
| 2026-04-23 19:50 | 14.80865 | 100.16114 | 29630 ft | 457 kts | 341° |
| 2026-04-23 19:50 | 14.83904 | 100.15102 | 29908 ft | 459 kts | 341° |
| 2026-04-23 19:50 | 14.86943 | 100.14089 | 30165 ft | 461 kts | 341° |
| 2026-04-23 19:51 | 14.89964 | 100.13083 | 30433 ft | 463 kts | 341° |
| 2026-04-23 19:51 | 14.93042 | 100.12058 | 30706 ft | 464 kts | 341° |
| 2026-04-23 19:51 | 14.96123 | 100.11031 | 31002 ft | 465 kts | 341° |
| 2026-04-23 19:51 | 14.99208 | 100.10003 | 31357 ft | 465 kts | 341° |
| 2026-04-23 19:52 | 15.02282 | 100.08978 | 31722 ft | 464 kts | 341° |
| 2026-04-23 19:52 | 15.05355 | 100.07955 | 32085 ft | 463 kts | 341° |
| 2026-04-23 19:52 | 15.08415 | 100.06935 | 32445 ft | 462 kts | 341° |
| 2026-04-23 19:52 | 15.11478 | 100.05915 | 32798 ft | 462 kts | 341° |
| 2026-04-23 19:53 | 15.14532 | 100.04897 | 33150 ft | 461 kts | 341° |
| 2026-04-23 19:53 | 15.17585 | 100.03879 | 33475 ft | 460 kts | 341° |
| 2026-04-23 19:53 | 15.20633 | 100.02862 | 33811 ft | 460 kts | 341° |
| 2026-04-23 19:53 | 15.23686 | 100.01843 | 34094 ft | 459 kts | 341° |
| 2026-04-23 19:54 | 15.26721 | 100.00830 | 34359 ft | 458 kts | 341° |
| 2026-04-23 19:54 | 15.29745 | 99.99820 | 34637 ft | 458 kts | 341° |
| 2026-04-23 19:54 | 15.32780 | 99.98806 | 34882 ft | 458 kts | 341° |
| 2026-04-23 19:54 | 15.35809 | 99.97793 | 35136 ft | 458 kts | 341° |
| 2026-04-23 19:55 | 15.38811 | 99.96790 | 35390 ft | 457 kts | 341° |
| 2026-04-23 19:55 | 15.41875 | 99.95765 | 35653 ft | 457 kts | 341° |
| 2026-04-23 19:55 | 15.44860 | 99.94768 | 35995 ft | 454 kts | 340° |
| 2026-04-23 19:55 | 15.47870 | 99.93761 | 36275 ft | 454 kts | 340° |
| 2026-04-23 19:56 | 15.50866 | 99.92758 | 36513 ft | 454 kts | 340° |
| 2026-04-23 19:56 | 15.53875 | 99.91750 | 36750 ft | 453 kts | 341° |
| 2026-04-23 19:56 | 15.56878 | 99.90744 | 36989 ft | 453 kts | 341° |
| 2026-04-23 19:56 | 15.59878 | 99.89740 | 37219 ft | 453 kts | 341° |
| 2026-04-23 19:57 | 15.62871 | 99.88737 | 37448 ft | 453 kts | 341° |
| 2026-04-23 19:57 | 15.65867 | 99.87733 | 37669 ft | 452 kts | 341° |
| 2026-04-23 19:57 | 15.68865 | 99.86728 | 37764 ft | 452 kts | 341° |
| 2026-04-23 19:58 | 15.74835 | 99.84725 | 37773 ft | 450 kts | 341° |
| 2026-04-23 19:58 | 15.80800 | 99.82725 | 37774 ft | 451 kts | 340° |
| 2026-04-23 19:59 | 15.86738 | 99.80730 | 37772 ft | 451 kts | 340° |
| 2026-04-23 19:59 | 15.92710 | 99.78723 | 37774 ft | 451 kts | 340° |
| 2026-04-23 20:00 | 15.98675 | 99.76717 | 37777 ft | 451 kts | 340° |
| 2026-04-23 20:00 | 16.04624 | 99.74716 | 37777 ft | 451 kts | 340° |
| 2026-04-23 20:01 | 16.10599 | 99.72704 | 37776 ft | 451 kts | 340° |
| 2026-04-23 20:01 | 16.16569 | 99.70694 | 37783 ft | 451 kts | 340° |
| 2026-04-23 20:02 | 16.22534 | 99.68683 | 37780 ft | 451 kts | 340° |
| 2026-04-23 20:02 | 16.28516 | 99.66665 | 37779 ft | 451 kts | 340° |
| 2026-04-23 20:03 | 16.34483 | 99.64652 | 37780 ft | 451 kts | 340° |
| 2026-04-23 20:03 | 16.40454 | 99.62637 | 37778 ft | 451 kts | 340° |
| 2026-04-23 20:04 | 16.46426 | 99.60621 | 37779 ft | 450 kts | 340° |
| 2026-04-23 20:04 | 16.52386 | 99.58609 | 37778 ft | 450 kts | 339° |
| 2026-04-23 20:05 | 16.57343 | 99.56934 | 37780 ft | 450 kts | 339° |
| 2026-04-23 20:05 | 16.64267 | 99.54592 | 37779 ft | 450 kts | 339° |
| 2026-04-23 20:06 | 16.70224 | 99.52576 | 37779 ft | 450 kts | 339° |
| 2026-04-23 20:06 | 16.76186 | 99.50557 | 37781 ft | 450 kts | 339° |
| 2026-04-23 20:07 | 16.82128 | 99.48544 | 37779 ft | 450 kts | 339° |
| 2026-04-23 20:07 | 16.88081 | 99.46526 | 37797 ft | 449 kts | 339° |
| 2026-04-23 20:08 | 16.93995 | 99.44524 | 37784 ft | 449 kts | 339° |
| 2026-04-23 20:08 | 16.97002 | 99.43502 | 37572 ft | 448 kts | 339° |
| 2026-04-23 20:08 | 16.99957 | 99.42498 | 37314 ft | 447 kts | 339° |
| 2026-04-23 20:08 | 17.02875 | 99.41506 | 37063 ft | 447 kts | 339° |
| 2026-04-23 20:09 | 17.05838 | 99.40499 | 36807 ft | 448 kts | 339° |
| 2026-04-23 20:09 | 17.08813 | 99.39487 | 36290 ft | 451 kts | 339° |
| 2026-04-23 20:09 | 17.11802 | 99.38469 | 35512 ft | 455 kts | 339° |
| 2026-04-23 20:09 | 17.14841 | 99.37435 | 34596 ft | 462 kts | 339° |
| 2026-04-23 20:10 | 17.16905 | 99.36732 | 34085 ft | 462 kts | 339° |
| 2026-04-23 20:10 | 17.20969 | 99.35350 | 32980 ft | 465 kts | 339° |
| 2026-04-23 20:10 | 17.24053 | 99.34301 | 32144 ft | 466 kts | 339° |
| 2026-04-23 20:10 | 17.27140 | 99.33249 | 31278 ft | 467 kts | 339° |
| 2026-04-23 20:11 | 17.30238 | 99.32193 | 30384 ft | 470 kts | 339° |
| 2026-04-23 20:11 | 17.33339 | 99.31136 | 29731 ft | 466 kts | 339° |
| 2026-04-23 20:11 | 17.36398 | 99.30093 | 29087 ft | 460 kts | 339° |
| 2026-04-23 20:11 | 17.39418 | 99.29064 | 28479 ft | 454 kts | 339° |
| 2026-04-23 20:12 | 17.42409 | 99.28044 | 27863 ft | 448 kts | 339° |
| 2026-04-23 20:12 | 17.45359 | 99.27056 | 27259 ft | 443 kts | 341° |
| 2026-04-23 20:12 | 17.47343 | 99.26532 | 26859 ft | 441 kts | 344° |
| 2026-04-23 20:12 | 17.51322 | 99.25544 | 26051 ft | 436 kts | 344° |
| 2026-04-23 20:13 | 17.54256 | 99.24810 | 25442 ft | 433 kts | 343° |
| 2026-04-23 20:13 | 17.56193 | 99.24324 | 25023 ft | 431 kts | 343° |
| 2026-04-23 20:13 | 17.60035 | 99.23359 | 24233 ft | 427 kts | 343° |
| 2026-04-23 20:13 | 17.62915 | 99.22636 | 23635 ft | 425 kts | 344° |
| 2026-04-23 20:14 | 17.64856 | 99.22148 | 23228 ft | 422 kts | 344° |
| 2026-04-23 20:14 | 17.67700 | 99.21435 | 22619 ft | 417 kts | 344° |
| 2026-04-23 20:14 | 17.70510 | 99.20730 | 22042 ft | 412 kts | 344° |
| 2026-04-23 20:14 | 17.73279 | 99.20035 | 21464 ft | 408 kts | 344° |
| 2026-04-23 20:15 | 17.75989 | 99.19354 | 20893 ft | 404 kts | 344° |
| 2026-04-23 20:15 | 17.78748 | 99.18661 | 20307 ft | 400 kts | 344° |
| 2026-04-23 20:15 | 17.81413 | 99.17995 | 19738 ft | 397 kts | 344° |
| 2026-04-23 20:15 | 17.84088 | 99.17324 | 19154 ft | 394 kts | 344° |
| 2026-04-23 20:16 | 17.86755 | 99.16652 | 18576 ft | 392 kts | 343° |
| 2026-04-23 20:16 | 17.89396 | 99.15985 | 17994 ft | 390 kts | 343° |
| 2026-04-23 20:16 | 17.92021 | 99.15323 | 17435 ft | 385 kts | 343° |
| 2026-04-23 20:16 | 17.94618 | 99.14668 | 16882 ft | 381 kts | 344° |
| 2026-04-23 20:17 | 17.97186 | 99.14020 | 16339 ft | 378 kts | 344° |
| 2026-04-23 20:17 | 17.99731 | 99.13379 | 15788 ft | 374 kts | 344° |
| 2026-04-23 20:17 | 18.02258 | 99.12741 | 15227 ft | 372 kts | 344° |
| 2026-04-23 20:17 | 18.04762 | 99.12110 | 14677 ft | 370 kts | 345° |
| 2026-04-23 20:18 | 18.07247 | 99.11483 | 14352 ft | 361 kts | 345° |
| 2026-04-23 20:18 | 18.09645 | 99.10880 | 14219 ft | 347 kts | 345° |
| 2026-04-23 20:18 | 18.11914 | 99.10312 | 14101 ft | 333 kts | 346° |
| 2026-04-23 20:18 | 18.14209 | 99.10142 | 13986 ft | 323 kts | 4° |
| 2026-04-23 20:19 | 18.16322 | 99.10700 | 13877 ft | 312 kts | 22° |
| 2026-04-23 20:19 | 18.18228 | 99.11662 | 13739 ft | 295 kts | 24° |
| 2026-04-23 20:19 | 18.20041 | 99.12588 | 13370 ft | 287 kts | 24° |
| 2026-04-23 20:19 | 18.21802 | 99.13486 | 13117 ft | 274 kts | 24° |
| 2026-04-23 20:20 | 18.23466 | 99.14518 | 13017 ft | 282 kts | 37° |
| 2026-04-23 20:20 | 18.24846 | 99.15981 | 12912 ft | 284 kts | 52° |
| 2026-04-23 20:20 | 18.26030 | 99.17645 | 12854 ft | 284 kts | 52° |
| 2026-04-23 20:20 | 18.27218 | 99.19295 | 12795 ft | 282 kts | 51° |
| 2026-04-23 20:21 | 18.28404 | 99.20932 | 12445 ft | 279 kts | 51° |
| 2026-04-23 20:21 | 18.29569 | 99.22538 | 12349 ft | 277 kts | 51° |
| 2026-04-23 20:21 | 18.30751 | 99.24165 | 12282 ft | 281 kts | 51° |
| 2026-04-23 20:21 | 18.32007 | 99.25715 | 12175 ft | 277 kts | 39° |
| 2026-04-23 20:22 | 18.33612 | 99.26785 | 12053 ft | 274 kts | 19° |
| 2026-04-23 20:22 | 18.35428 | 99.27436 | 11940 ft | 276 kts | 16° |
| 2026-04-23 20:22 | 18.37239 | 99.28075 | 11826 ft | 272 kts | 17° |
| 2026-04-23 20:22 | 18.39001 | 99.28707 | 11714 ft | 271 kts | 17° |
| 2026-04-23 20:23 | 18.40828 | 99.29163 | 11601 ft | 268 kts | 2° |
| 2026-04-23 20:23 | 18.42679 | 99.29054 | 11486 ft | 266 kts | 347° |
| 2026-04-23 20:23 | 18.44487 | 99.28665 | 11377 ft | 266 kts | 347° |
| 2026-04-23 20:23 | 18.46322 | 99.28284 | 11266 ft | 265 kts | 347° |
| 2026-04-23 20:24 | 18.48091 | 99.27865 | 11160 ft | 263 kts | 336° |
| 2026-04-23 20:24 | 18.49572 | 99.26801 | 11047 ft | 260 kts | 309° |
| 2026-04-23 20:24 | 18.50389 | 99.25126 | 10909 ft | 260 kts | 281° |
| 2026-04-23 20:24 | 18.50365 | 99.23234 | 10621 ft | 263 kts | 254° |
| 2026-04-23 20:25 | 18.49595 | 99.21481 | 10272 ft | 264 kts | 242° |
| 2026-04-23 20:25 | 18.48708 | 99.19788 | 9978 ft | 262 kts | 242° |
| 2026-04-23 20:25 | 18.47834 | 99.18113 | 9676 ft | 260 kts | 242° |
| 2026-04-23 20:25 | 18.46978 | 99.16450 | 9373 ft | 257 kts | 243° |
| 2026-04-23 20:26 | 18.46136 | 99.14801 | 9085 ft | 254 kts | 243° |
| 2026-04-23 20:26 | 18.45300 | 99.13154 | 8798 ft | 255 kts | 243° |
| 2026-04-23 20:26 | 18.44466 | 99.11508 | 8503 ft | 254 kts | 243° |
| 2026-04-23 20:26 | 18.43641 | 99.09875 | 8209 ft | 251 kts | 244° |
| 2026-04-23 20:27 | 18.43043 | 99.08156 | 7947 ft | 252 kts | 260° |
| 2026-04-23 20:27 | 18.42926 | 99.06326 | 7691 ft | 250 kts | 272° |
| 2026-04-23 20:27 | 18.42956 | 99.04500 | 7432 ft | 248 kts | 271° |
| 2026-04-23 20:27 | 18.42969 | 99.02686 | 7174 ft | 247 kts | 271° |
| 2026-04-23 20:28 | 18.42973 | 99.00877 | 6917 ft | 247 kts | 271° |
| 2026-04-23 20:28 | 18.42983 | 98.99084 | 6698 ft | 243 kts | 275° |
| 2026-04-23 20:28 | 18.43482 | 98.97427 | 6613 ft | 236 kts | 305° |
| 2026-04-23 20:28 | 18.44666 | 98.96347 | 6588 ft | 222 kts | 337° |
| 2026-04-23 20:29 | 18.46179 | 98.96109 | 6535 ft | 224 kts | 0° |
| 2026-04-23 20:29 | 18.47739 | 98.96157 | 6259 ft | 225 kts | 0° |
| 2026-04-23 20:29 | 18.49305 | 98.96201 | 5837 ft | 229 kts | 360° |
| 2026-04-23 20:29 | 18.50911 | 98.96232 | 5395 ft | 231 kts | 359° |
| 2026-04-23 20:30 | 18.52476 | 98.96248 | 4958 ft | 217 kts | 358° |
| 2026-04-23 20:30 | 18.55329 | 98.96248 | 4177 ft | 190 kts | 358° |
| 2026-04-23 20:30 | 18.56629 | 98.96245 | 3735 ft | 183 kts | 358° |
| 2026-04-23 20:31 | 18.57878 | 98.96244 | 3426 ft | 175 kts | 358° |
| 2026-04-23 20:31 | 18.59041 | 98.96244 | 3289 ft | 158 kts | 359° |
| 2026-04-23 20:31 | 18.60066 | 98.96247 | 3291 ft | 143 kts | 359° |
| 2026-04-23 20:31 | 18.61065 | 98.96249 | 3296 ft | 144 kts | 359° |
| 2026-04-23 20:32 | 18.62063 | 98.96251 | 3295 ft | 143 kts | 359° |
| 2026-04-23 20:32 | 18.63060 | 98.96253 | 3295 ft | 144 kts | 358° |
| 2026-04-23 20:32 | 18.64062 | 98.96256 | 3135 ft | 144 kts | 359° |
| 2026-04-23 20:32 | 18.65061 | 98.96259 | 2965 ft | 143 kts | 359° |
| 2026-04-23 20:33 | 18.66050 | 98.96261 | 2787 ft | 142 kts | 359° |
| 2026-04-23 20:33 | 18.67039 | 98.96263 | 2610 ft | 142 kts | 359° |
| 2026-04-23 20:33 | 18.68009 | 98.96266 | 2437 ft | 141 kts | 359° |
| 2026-04-23 20:33 | 18.69002 | 98.96269 | 2256 ft | 140 kts | 360° |
| 2026-04-23 20:34 | 18.69962 | 98.96271 | 2081 ft | 138 kts | 0° |
| 2026-04-23 20:34 | 18.70919 | 98.96274 | 1896 ft | 137 kts | 0° |
| 2026-04-23 20:34 | 18.71881 | 98.96276 | 1724 ft | 137 kts | 0° |
| 2026-04-23 20:34 | 18.72819 | 98.96278 | 1537 ft | 136 kts | 0° |
| 2026-04-23 20:35 | 18.73765 | 98.96272 | 1423 ft | 135 kts | 0° |
| 2026-04-23 20:35 | 18.74717 | 98.96282 | 1198 ft | 137 kts | 360° |
| 2026-04-23 20:35 | 18.75662 | 98.96286 | 1040 ft | 133 kts | 0° |
| 2026-04-23 20:35 | 18.76443 | 98.96288 | 1032 ft | 85 kts | 1° |
| 2026-04-23 20:36 | 18.76803 | 98.96288 | 1031 ft | 31 kts | 359° |
| 2026-04-23 20:36 | 18.77022 | 98.96290 | 1031 ft | 32 kts | 0° |
| 2026-04-23 20:36 | 18.77134 | 98.96329 | 1031 ft | 15 kts | 83° |
| 2026-04-23 20:36 | 18.77138 | 98.96437 | 1031 ft | 14 kts | 90° |
| 2026-04-23 20:37 | 18.77138 | 98.96459 | 1031 ft | 0 kts | 90° |
| 2026-04-23 20:39 | 18.77137 | 98.96479 | 1031 ft | 5 kts | 90° |
| 2026-04-23 20:39 | 18.77131 | 98.96527 | 1031 ft | 8 kts | 108° |
| 2026-04-23 20:39 | 18.77093 | 98.96586 | 1031 ft | 12 kts | 137° |
| 2026-04-23 20:39 | 18.77035 | 98.96633 | 1031 ft | 7 kts | 123° |
| 2026-04-23 20:40 | 18.77042 | 98.96681 | 1031 ft | 8 kts | 89° |
| 2026-04-23 20:40 | 18.77041 | 98.96739 | 1031 ft | 0 kts | 91° |